Dewees Island, South Carolina
Current Conditions -  °F | °C
As of 10:56 AM on Wednesday 28 Jan 2015 (Local Time) from KCHS Reporting Station
Clear Clear  
Wind Chill: 32°   Ceiling: Unl
Heat Index: 41°   Visibility: 10mi
Dew Point: 19°   Wind: 17mph
Humidity: 41%   Direction: 350°N
Pressure: 30.28"   Gusts: 22mph
Location:  32.8046°N, 79.7534°W
Report Text: KCHS 281556Z 35015G19KT 10SM CLR 05/M07 A3028 RMK AO2 SLP252 T00501072
Loading
Personal Weather Stations






























Interactive Weather Map New forecast layout! Learn more

10-Day Weather Forecast

Advertisements
Track Severe Weather on mobile